Time;durP1;ratioP1;P1;durP2;ratioP2;P2;SDS_P1;SDS_P2;PMS_P1;PMS_P2;Temp;Humidity;BMP_temperature;BMP_pressure;BME280_temperature;BME280_humidity;BME280_pressure;Samples;Min_cycle;Max_cycle;Signal;HPM_P1;HPM_P2
2021/07/06 00:00:52;;;;;;;8.13;4.65;;;;;;;;;;1493189;39;20081;-61
2021/07/06 00:01:53;;;;;;;8.02;4.45;;;;;;;;;;1493171;39;20031;-61
2021/07/06 00:02:55;;;;;;;6.93;4.80;;;;;;;;;;1493162;39;20024;-61
2021/07/06 00:03:56;;;;;;;7.15;4.50;;;;;;;;;;1493101;39;20047;-61
2021/07/06 00:05:00;;;;;;;6.20;4.20;;;;;;;;;;1493321;39;20035;-61
2021/07/06 00:06:01;;;;;;;7.10;4.50;;;;;;;;;;1493158;39;20023;-60
2021/07/06 00:07:04;;;;;;;7.32;4.03;;;;;;;;;;1493214;39;20032;-61
2021/07/06 00:08:05;;;;;;;5.88;4.30;;;;;;;;;;1493153;39;20038;-61
2021/07/06 00:09:07;;;;;;;8.25;4.35;;;;;;;;;;1493186;39;20024;-61
2021/07/06 00:10:10;;;;;;;8.35;4.18;;;;;;;;;;1493179;39;20020;-61
2021/07/06 00:11:11;;;;;;;9.48;4.78;;;;;;;;;;1493094;39;20288;-61
2021/07/06 00:12:13;;;;;;;7.53;4.60;;;;;;;;;;1493132;39;20032;-61
2021/07/06 00:13:15;;;;;;;9.23;4.72;;;;;;;;;;1493095;39;20040;-59
2021/07/06 00:14:15;;;;;;;9.18;4.80;;;;;;;;;;1493139;39;20027;-61
2021/07/06 00:15:23;;;;;;;9.85;4.50;;;;;;;;;;1493161;39;20303;-59
2021/07/06 00:16:24;;;;;;;10.48;4.95;;;;;;;;;;1493116;39;20024;-61
2021/07/06 00:17:25;;;;;;;8.15;4.43;;;;;;;;;;1493143;39;20024;-59
2021/07/06 00:18:26;;;;;;;11.57;5.45;;;;;;;;;;1493041;39;20392;-61
2021/07/06 00:19:28;;;;;;;7.80;5.00;;;;;;;;;;1493154;39;20020;-61
2021/07/06 00:20:29;;;;;;;10.70;6.00;;;;;;;;;;1493095;39;20020;-61
2021/07/06 00:21:31;;;;;;;10.23;5.43;;;;;;;;;;1493292;39;20031;-60
2021/07/06 00:22:34;;;;;;;8.45;5.35;;;;;;;;;;1493196;39;20027;-61
2021/07/06 00:23:35;;;;;;;10.10;5.13;;;;;;;;;;1493147;39;20024;-61
2021/07/06 00:24:36;;;;;;;7.20;4.80;;;;;;;;;;1493182;39;20024;-59
2021/07/06 00:25:38;;;;;;;10.95;5.25;;;;;;;;;;1493111;39;20387;-61
2021/07/06 00:26:39;;;;;;;8.73;5.30;;;;;;;;;;1493146;39;20024;-59
2021/07/06 00:27:41;;;;;;;11.48;5.70;;;;;;;;;;1493078;39;20024;-61
2021/07/06 00:28:42;;;;;;;7.28;5.32;;;;;;;;;;1493037;39;20028;-61
2021/07/06 00:29:44;;;;;;;9.45;5.70;;;;;;;;;;1493114;39;20027;-61
2021/07/06 00:30:44;;;;;;;9.95;5.72;;;;;;;;;;1493224;39;20020;-59
2021/07/06 00:31:46;;;;;;;10.20;5.80;;;;;;;;;;1493117;39;20024;-61
2021/07/06 00:32:47;;;;;;;6.82;5.65;;;;;;;;;;1493011;39;20400;-59
2021/07/06 00:33:51;;;;;;;9.93;6.10;;;;;;;;;;1493135;39;20035;-61
2021/07/06 00:34:51;;;;;;;9.27;6.00;;;;;;;;;;1493008;39;20028;-61
2021/07/06 00:35:53;;;;;;;10.13;6.40;;;;;;;;;;1493285;39;20279;-59
2021/07/06 00:36:54;;;;;;;9.52;6.10;;;;;;;;;;1493221;39;20020;-60
2021/07/06 00:37:57;;;;;;;9.63;6.13;;;;;;;;;;1493105;39;20296;-61
2021/07/06 00:38:58;;;;;;;7.72;5.97;;;;;;;;;;1493051;39;20024;-61
2021/07/06 00:40:00;;;;;;;12.88;6.03;;;;;;;;;;1493288;39;20031;-60
2021/07/06 00:41:02;;;;;;;12.93;6.18;;;;;;;;;;1493037;39;20042;-61
2021/07/06 00:42:06;;;;;;;10.10;5.78;;;;;;;;;;1493125;39;20361;-61
2021/07/06 00:43:07;;;;;;;7.68;5.80;;;;;;;;;;1493138;39;20031;-61
2021/07/06 00:44:14;;;;;;;9.70;6.15;;;;;;;;;;1493017;39;20398;-59
2021/07/06 00:45:16;;;;;;;9.35;5.80;;;;;;;;;;1493175;39;20082;-61
2021/07/06 00:46:18;;;;;;;8.88;6.13;;;;;;;;;;1493155;39;20024;-61
2021/07/06 00:47:30;;;;;;;10.45;5.78;;;;;;;;;;1493120;39;20028;-61
2021/07/06 00:48:32;;;;;;;9.65;5.90;;;;;;;;;;1493063;39;20027;-61
2021/07/06 00:49:34;;;;;;;11.88;6.18;;;;;;;;;;1493221;39;20125;-61
2021/07/06 00:50:35;;;;;;;8.95;5.97;;;;;;;;;;1492941;39;20024;-59
2021/07/06 00:51:37;;;;;;;13.20;6.30;;;;;;;;;;1493210;39;20051;-61
2021/07/06 00:52:39;;;;;;;9.45;5.53;;;;;;;;;;1493166;39;20024;-60
2021/07/06 00:53:41;;;;;;;8.32;5.90;;;;;;;;;;1493043;39;20024;-60
2021/07/06 00:54:43;;;;;;;9.73;6.40;;;;;;;;;;1493149;39;20144;-59
2021/07/06 00:55:45;;;;;;;10.00;5.82;;;;;;;;;;1493012;39;20020;-61
2021/07/06 00:56:47;;;;;;;9.40;5.95;;;;;;;;;;1493098;39;20040;-61
2021/07/06 00:57:48;;;;;;;10.75;5.78;;;;;;;;;;1493032;39;20103;-61
2021/07/06 00:58:50;;;;;;;12.82;5.80;;;;;;;;;;1493055;39;20409;-61
2021/07/06 00:59:51;;;;;;;8.38;5.47;;;;;;;;;;1493128;39;20032;-61
2021/07/06 01:00:53;;;;;;;7.95;5.38;;;;;;;;;;1493114;39;20396;-60
2021/07/06 01:01:54;;;;;;;8.52;5.97;;;;;;;;;;1492985;39;20024;-61
2021/07/06 01:02:56;;;;;;;7.65;5.53;;;;;;;;;;1492902;39;20043;-59
2021/07/06 01:03:57;;;;;;;9.45;5.68;;;;;;;;;;1493040;39;20020;-60
2021/07/06 01:04:58;;;;;;;10.23;5.63;;;;;;;;;;1492964;39;20035;-61
2021/07/06 01:05:59;;;;;;;8.27;6.00;;;;;;;;;;1492952;39;20299;-60
2021/07/06 01:07:01;;;;;;;12.57;6.05;;;;;;;;;;1493173;39;20035;-61
2021/07/06 01:08:03;;;;;;;12.90;6.10;;;;;;;;;;1493077;39;20028;-60
2021/07/06 01:09:06;;;;;;;11.52;6.00;;;;;;;;;;1493092;39;20024;-60
2021/07/06 01:10:09;;;;;;;8.80;5.82;;;;;;;;;;1492959;39;20290;-60
2021/07/06 01:11:11;;;;;;;9.45;6.03;;;;;;;;;;1493017;39;20086;-61
2021/07/06 01:12:13;;;;;;;9.52;5.80;;;;;;;;;;1493043;39;20085;-61
2021/07/06 01:13:15;;;;;;;11.05;5.40;;;;;;;;;;1492857;39;20032;-61
2021/07/06 01:14:17;;;;;;;10.35;5.45;;;;;;;;;;1493110;39;20031;-61
2021/07/06 01:15:20;;;;;;;8.98;4.95;;;;;;;;;;1492985;39;20039;-61
2021/07/06 01:16:21;;;;;;;9.40;5.03;;;;;;;;;;1492987;39;20406;-59
2021/07/06 01:17:26;;;;;;;8.32;4.97;;;;;;;;;;1493046;39;20032;-61
2021/07/06 01:18:27;;;;;;;8.48;5.07;;;;;;;;;;1492954;39;20024;-61
2021/07/06 01:19:29;;;;;;;5.60;4.57;;;;;;;;;;1492998;39;20027;-61
2021/07/06 01:20:31;;;;;;;8.30;4.68;;;;;;;;;;1492930;39;20032;-61
2021/07/06 01:21:33;;;;;;;9.20;4.63;;;;;;;;;;1493324;39;20039;-60
2021/07/06 01:22:35;;;;;;;7.10;4.50;;;;;;;;;;1492950;39;20020;-61
2021/07/06 01:23:37;;;;;;;9.45;4.75;;;;;;;;;;1493057;39;20060;-59
2021/07/06 01:24:38;;;;;;;8.27;4.63;;;;;;;;;;1492992;39;20101;-60
2021/07/06 01:25:42;;;;;;;8.45;5.35;;;;;;;;;;1493101;39;20027;-61
2021/07/06 01:26:42;;;;;;;9.90;4.63;;;;;;;;;;1492894;39;20028;-61
2021/07/06 01:27:45;;;;;;;9.90;4.80;;;;;;;;;;1492910;39;20030;-60
2021/07/06 01:28:46;;;;;;;10.75;4.95;;;;;;;;;;1492895;39;20024;-61
2021/07/06 01:29:48;;;;;;;10.73;4.47;;;;;;;;;;1492903;39;20036;-59
2021/07/06 01:30:50;;;;;;;9.88;4.25;;;;;;;;;;1492971;39;20269;-60
2021/07/06 01:31:52;;;;;;;10.70;4.43;;;;;;;;;;1492898;39;20031;-61
2021/07/06 01:32:54;;;;;;;8.43;4.63;;;;;;;;;;1492959;39;20047;-60
2021/07/06 01:33:55;;;;;;;7.45;4.47;;;;;;;;;;1492957;39;20392;-61
2021/07/06 01:34:57;;;;;;;6.40;4.35;;;;;;;;;;1492836;39;20264;-61
2021/07/06 01:36:01;;;;;;;8.85;4.35;;;;;;;;;;1492900;39;20035;-60
2021/07/06 01:37:03;;;;;;;10.63;4.57;;;;;;;;;;1492992;39;20056;-61
2021/07/06 01:38:06;;;;;;;9.23;4.82;;;;;;;;;;1492903;39;20027;-61
2021/07/06 01:39:08;;;;;;;9.25;4.50;;;;;;;;;;1492923;39;20096;-61
2021/07/06 01:40:10;;;;;;;9.70;4.65;;;;;;;;;;1492906;39;20027;-60
2021/07/06 01:41:12;;;;;;;10.18;4.63;;;;;;;;;;1492835;39;20081;-60
2021/07/06 01:42:16;;;;;;;6.78;4.78;;;;;;;;;;1492941;39;20020;-61
2021/07/06 01:43:18;;;;;;;8.02;4.95;;;;;;;;;;1492945;39;20388;-60
2021/07/06 01:44:21;;;;;;;7.70;4.93;;;;;;;;;;1493031;39;20047;-60
2021/07/06 01:45:25;;;;;;;7.65;5.00;;;;;;;;;;1493016;39;20157;-61
2021/07/06 01:46:25;;;;;;;7.03;4.82;;;;;;;;;;1492988;39;20046;-59
2021/07/06 01:47:28;;;;;;;9.02;4.82;;;;;;;;;;1493082;39;20023;-59
2021/07/06 01:48:29;;;;;;;9.10;4.65;;;;;;;;;;1492837;39;20028;-60
2021/07/06 01:49:33;;;;;;;9.15;5.05;;;;;;;;;;1492956;39;20295;-59
2021/07/06 01:50:35;;;;;;;12.82;4.95;;;;;;;;;;1492841;39;20299;-60
2021/07/06 01:51:37;;;;;;;10.27;5.10;;;;;;;;;;1492894;39;20032;-60
2021/07/06 01:52:42;;;;;;;8.10;5.00;;;;;;;;;;1492754;39;20024;-59
2021/07/06 01:53:45;;;;;;;11.10;5.68;;;;;;;;;;1492936;39;20027;-61
2021/07/06 01:54:46;;;;;;;9.57;4.70;;;;;;;;;;1492786;39;20020;-61
2021/07/06 01:55:50;;;;;;;8.38;4.50;;;;;;;;;;1492870;39;20015;-61
2021/07/06 01:56:51;;;;;;;7.10;4.95;;;;;;;;;;1492917;39;20027;-59
2021/07/06 01:57:54;;;;;;;7.82;5.05;;;;;;;;;;1492984;39;20028;-60
2021/07/06 01:58:56;;;;;;;6.05;4.20;;;;;;;;;;1492810;39;20391;-61
2021/07/06 01:59:57;;;;;;;6.85;4.15;;;;;;;;;;1493080;39;20045;-59
2021/07/06 02:01:00;;;;;;;8.13;4.55;;;;;;;;;;1492838;39;20024;-60
2021/07/06 02:02:02;;;;;;;6.32;4.20;;;;;;;;;;1492994;39;20024;-61
2021/07/06 02:03:04;;;;;;;9.35;3.95;;;;;;;;;;1492293;39;20031;-60
2021/07/06 02:04:07;;;;;;;8.40;4.65;;;;;;;;;;1493079;39;20022;-61
2021/07/06 02:05:25;;;;;;;7.88;4.25;;;;;;;;;;1492765;39;20020;-59
2021/07/06 02:06:28;;;;;;;8.77;4.50;;;;;;;;;;1492955;39;20261;-59
2021/07/06 02:07:28;;;;;;;7.25;4.22;;;;;;;;;;1492852;39;20384;-61
2021/07/06 02:08:30;;;;;;;6.32;4.10;;;;;;;;;;1493074;39;20024;-61
2021/07/06 02:09:32;;;;;;;7.32;4.18;;;;;;;;;;1492789;39;20295;-60
2021/07/06 02:10:35;;;;;;;9.30;4.65;;;;;;;;;;1492881;39;20016;-59
2021/07/06 02:11:36;;;;;;;5.85;4.22;;;;;;;;;;1492870;39;20153;-61
2021/07/06 02:12:39;;;;;;;5.78;3.95;;;;;;;;;;1492988;39;20085;-61
2021/07/06 02:13:40;;;;;;;8.63;4.03;;;;;;;;;;1492901;39;20024;-61
2021/07/06 02:14:42;;;;;;;7.90;4.07;;;;;;;;;;1492845;39;20024;-61
2021/07/06 02:15:43;;;;;;;6.63;4.30;;;;;;;;;;1492758;39;20024;-61
2021/07/06 02:16:45;;;;;;;8.02;3.90;;;;;;;;;;1492698;39;20031;-59
2021/07/06 02:17:46;;;;;;;7.72;3.80;;;;;;;;;;1492822;39;20398;-61
2021/07/06 02:18:48;;;;;;;6.72;3.78;;;;;;;;;;1492883;39;20024;-61
2021/07/06 02:19:49;;;;;;;7.20;3.83;;;;;;;;;;1492746;39;20399;-61
2021/07/06 02:20:53;;;;;;;6.32;3.65;;;;;;;;;;1492885;39;20058;-60
2021/07/06 02:21:54;;;;;;;4.55;3.30;;;;;;;;;;1492776;39;20031;-59
2021/07/06 02:22:56;;;;;;;6.45;3.65;;;;;;;;;;1492799;39;20035;-61
2021/07/06 02:23:57;;;;;;;5.03;3.60;;;;;;;;;;1492820;39;20291;-61
2021/07/06 02:25:00;;;;;;;6.32;3.55;;;;;;;;;;1492954;39;20035;-60
2021/07/06 02:26:03;;;;;;;8.80;4.07;;;;;;;;;;1492703;39;20028;-61
2021/07/06 02:27:05;;;;;;;7.40;3.88;;;;;;;;;;1492274;39;20056;-61
2021/07/06 02:28:06;;;;;;;6.20;3.65;;;;;;;;;;1492236;39;20028;-61
2021/07/06 02:29:08;;;;;;;6.45;3.90;;;;;;;;;;1492795;39;20269;-59
2021/07/06 02:30:10;;;;;;;6.30;3.28;;;;;;;;;;1493019;39;20027;-61
2021/07/06 02:31:12;;;;;;;6.47;3.30;;;;;;;;;;1492896;39;20028;-59
2021/07/06 02:32:13;;;;;;;6.75;3.50;;;;;;;;;;1492701;39;20031;-59
2021/07/06 02:33:15;;;;;;;6.32;3.35;;;;;;;;;;1492718;39;20039;-60
2021/07/06 02:34:15;;;;;;;5.65;3.40;;;;;;;;;;1492759;39;20388;-61
2021/07/06 02:35:18;;;;;;;6.68;3.17;;;;;;;;;;1492714;39;20028;-59
2021/07/06 02:36:19;;;;;;;8.25;3.40;;;;;;;;;;1492706;39;20028;-60
2021/07/06 02:37:20;;;;;;;5.80;3.15;;;;;;;;;;1492776;39;20027;-61
2021/07/06 02:38:21;;;;;;;6.30;4.07;;;;;;;;;;1492874;39;20020;-60
2021/07/06 02:39:23;;;;;;;8.75;3.30;;;;;;;;;;1492697;39;20303;-59
2021/07/06 02:40:26;;;;;;;5.13;3.45;;;;;;;;;;1492680;39;20024;-59
2021/07/06 02:41:28;;;;;;;7.45;3.22;;;;;;;;;;1492842;39;20020;-61
2021/07/06 02:42:29;;;;;;;6.30;3.00;;;;;;;;;;1492797;39;20024;-59
2021/07/06 02:43:31;;;;;;;5.05;3.55;;;;;;;;;;1492865;39;20024;-59
2021/07/06 02:44:31;;;;;;;4.95;3.20;;;;;;;;;;1492722;39;20261;-60
2021/07/06 02:45:34;;;;;;;6.32;3.80;;;;;;;;;;1492917;39;20058;-61
2021/07/06 02:46:34;;;;;;;6.57;3.53;;;;;;;;;;1492669;39;20028;-61
2021/07/06 02:47:36;;;;;;;7.18;3.53;;;;;;;;;;1492898;39;20020;-61
2021/07/06 02:48:39;;;;;;;5.78;3.22;;;;;;;;;;1492913;39;20028;-61
2021/07/06 02:49:40;;;;;;;5.63;3.25;;;;;;;;;;1492741;39;20024;-61
2021/07/06 02:50:41;;;;;;;5.32;2.97;;;;;;;;;;1492670;39;20087;-60
2021/07/06 02:51:42;;;;;;;5.50;3.08;;;;;;;;;;1492691;39;20024;-60
2021/07/06 02:52:44;;;;;;;6.25;3.30;;;;;;;;;;1492692;39;20113;-59
2021/07/06 02:53:46;;;;;;;5.90;3.33;;;;;;;;;;1492754;39;20027;-59
2021/07/06 02:54:48;;;;;;;5.80;3.10;;;;;;;;;;1492857;39;20026;-61
2021/07/06 02:55:51;;;;;;;5.13;3.40;;;;;;;;;;1492609;39;20027;-60
2021/07/06 02:56:52;;;;;;;6.90;3.30;;;;;;;;;;1492746;39;20028;-59
2021/07/06 02:57:54;;;;;;;7.10;3.15;;;;;;;;;;1492754;39;20016;-60
2021/07/06 02:58:56;;;;;;;8.13;3.47;;;;;;;;;;1492680;39;20328;-60
2021/07/06 02:59:57;;;;;;;4.95;3.22;;;;;;;;;;1492821;39;20024;-59
2021/07/06 03:00:59;;;;;;;5.22;3.10;;;;;;;;;;1492700;39;20391;-61
2021/07/06 03:01:59;;;;;;;9.77;3.75;;;;;;;;;;1492743;39;20154;-59
2021/07/06 03:03:03;;;;;;;5.82;3.30;;;;;;;;;;1492680;39;20124;-60
2021/07/06 03:04:04;;;;;;;7.05;3.47;;;;;;;;;;1492689;39;20027;-61
2021/07/06 03:05:07;;;;;;;5.80;3.30;;;;;;;;;;1492863;39;20024;-61
2021/07/06 03:06:09;;;;;;;4.50;3.25;;;;;;;;;;1492753;39;20315;-61
2021/07/06 03:07:10;;;;;;;10.23;3.80;;;;;;;;;;1492554;39;20307;-61
2021/07/06 03:08:12;;;;;;;6.82;3.40;;;;;;;;;;1492790;39;20031;-59
2021/07/06 03:09:13;;;;;;;6.40;3.45;;;;;;;;;;1492663;39;20020;-59
2021/07/06 03:10:15;;;;;;;4.53;3.22;;;;;;;;;;1492708;39;20046;-60
2021/07/06 03:11:19;;;;;;;8.15;3.22;;;;;;;;;;1492659;39;20376;-59
2021/07/06 03:12:20;;;;;;;6.72;3.20;;;;;;;;;;1492629;39;20035;-59
2021/07/06 03:13:23;;;;;;;7.00;3.33;;;;;;;;;;1492541;39;20081;-59
2021/07/06 03:14:24;;;;;;;5.40;3.30;;;;;;;;;;1492994;39;20020;-59
2021/07/06 03:15:27;;;;;;;5.85;3.08;;;;;;;;;;1493255;39;20391;-61
2021/07/06 03:16:28;;;;;;;7.05;3.90;;;;;;;;;;1493291;39;20031;-59
2021/07/06 03:17:30;;;;;;;10.38;3.63;;;;;;;;;;1493221;39;20046;-59
2021/07/06 03:18:32;;;;;;;6.15;2.92;;;;;;;;;;1493250;39;20024;-59
2021/07/06 03:19:33;;;;;;;7.38;3.42;;;;;;;;;;1493256;39;20020;-59
2021/07/06 03:20:35;;;;;;;8.43;3.30;;;;;;;;;;1493287;39;20384;-61
2021/07/06 03:21:35;;;;;;;6.70;3.28;;;;;;;;;;1493239;39;20067;-61
2021/07/06 03:22:39;;;;;;;6.80;3.13;;;;;;;;;;1493302;39;20024;-61
2021/07/06 03:23:40;;;;;;;6.85;2.92;;;;;;;;;;1492713;39;20354;-60
2021/07/06 03:24:42;;;;;;;6.22;3.22;;;;;;;;;;1492844;39;20063;-60
2021/07/06 03:25:43;;;;;;;6.90;3.20;;;;;;;;;;1493260;39;20291;-59
2021/07/06 03:26:47;;;;;;;8.35;3.28;;;;;;;;;;1493232;39;20299;-59
2021/07/06 03:27:48;;;;;;;8.13;3.33;;;;;;;;;;1493253;39;20031;-59
2021/07/06 03:28:50;;;;;;;4.78;3.10;;;;;;;;;;1493271;39;20388;-61
2021/07/06 03:29:53;;;;;;;7.90;3.25;;;;;;;;;;1493271;39;20023;-59
2021/07/06 03:30:55;;;;;;;4.22;2.97;;;;;;;;;;1493183;39;20101;-61
2021/07/06 03:31:55;;;;;;;10.63;3.28;;;;;;;;;;1493233;39;20388;-60
2021/07/06 03:32:59;;;;;;;8.02;3.20;;;;;;;;;;1493318;39;20024;-59
2021/07/06 03:33:59;;;;;;;5.82;3.25;;;;;;;;;;1493338;39;20291;-59
2021/07/06 03:35:02;;;;;;;10.52;3.33;;;;;;;;;;1493253;39;20024;-61
2021/07/06 03:36:03;;;;;;;6.75;3.42;;;;;;;;;;1493247;39;20020;-60
2021/07/06 03:37:07;;;;;;;5.60;3.20;;;;;;;;;;1493279;39;20024;-59
2021/07/06 03:38:08;;;;;;;7.25;3.50;;;;;;;;;;1493288;39;20137;-61
2021/07/06 03:39:10;;;;;;;8.27;3.28;;;;;;;;;;1493302;39;20039;-59
2021/07/06 03:40:12;;;;;;;9.18;3.20;;;;;;;;;;1493170;39;20020;-61
2021/07/06 03:41:14;;;;;;;7.00;3.35;;;;;;;;;;1493238;39;20032;-60
2021/07/06 03:42:16;;;;;;;8.20;2.95;;;;;;;;;;1493172;39;20035;-60
2021/07/06 03:43:18;;;;;;;6.43;3.20;;;;;;;;;;1493266;39;20027;-59
2021/07/06 03:44:19;;;;;;;8.85;3.55;;;;;;;;;;1493188;39;20020;-59
2021/07/06 03:45:22;;;;;;;9.25;3.40;;;;;;;;;;1493212;39;20062;-61
2021/07/06 03:46:26;;;;;;;8.43;3.83;;;;;;;;;;1493213;39;20024;-61
2021/07/06 03:47:27;;;;;;;11.77;3.45;;;;;;;;;;1493243;39;20035;-61
2021/07/06 03:48:28;;;;;;;10.25;3.67;;;;;;;;;;1493183;39;20028;-59
2021/07/06 03:49:30;;;;;;;8.00;3.00;;;;;;;;;;1492615;39;20289;-61
2021/07/06 03:50:31;;;;;;;11.68;2.83;;;;;;;;;;1492701;39;20050;-59
2021/07/06 03:51:34;;;;;;;8.88;3.45;;;;;;;;;;1493300;39;20031;-61
2021/07/06 03:52:34;;;;;;;6.47;3.30;;;;;;;;;;1493106;39;20039;-61
2021/07/06 03:53:36;;;;;;;6.45;2.90;;;;;;;;;;1493241;39;20020;-59
2021/07/06 03:54:37;;;;;;;6.65;3.45;;;;;;;;;;1493173;39;20035;-59
2021/07/06 03:55:39;;;;;;;5.25;2.75;;;;;;;;;;1493175;39;20031;-61
2021/07/06 03:56:40;;;;;;;11.23;3.83;;;;;;;;;;1493221;39;20024;-61
2021/07/06 03:57:44;;;;;;;5.75;2.70;;;;;;;;;;1493256;39;20024;-61
2021/07/06 03:58:45;;;;;;;6.43;3.40;;;;;;;;;;1493147;39;20024;-61
2021/07/06 03:59:47;;;;;;;5.38;3.08;;;;;;;;;;1493250;39;20476;-59
2021/07/06 04:00:48;;;;;;;6.95;3.20;;;;;;;;;;1493278;39;20027;-60
2021/07/06 04:01:50;;;;;;;7.22;3.30;;;;;;;;;;1493201;39;20305;-61
2021/07/06 04:02:51;;;;;;;10.32;3.08;;;;;;;;;;1493088;39;20024;-59
2021/07/06 04:03:53;;;;;;;10.30;3.10;;;;;;;;;;1493211;39;20015;-60
2021/07/06 04:04:54;;;;;;;6.13;3.00;;;;;;;;;;1493140;39;20016;-61
2021/07/06 04:05:56;;;;;;;10.00;2.80;;;;;;;;;;1493136;39;20403;-59
2021/07/06 04:06:56;;;;;;;5.93;3.10;;;;;;;;;;1493150;39;20028;-59
2021/07/06 04:07:58;;;;;;;4.30;3.17;;;;;;;;;;1493216;39;20060;-59
2021/07/06 04:08:59;;;;;;;6.32;3.20;;;;;;;;;;1493112;39;20020;-61
2021/07/06 04:10:01;;;;;;;4.55;2.83;;;;;;;;;;1493263;39;20027;-61
2021/07/06 04:11:02;;;;;;;7.22;2.65;;;;;;;;;;1493160;39;20031;-61
2021/07/06 04:12:05;;;;;;;6.60;3.20;;;;;;;;;;1493363;39;20035;-60
2021/07/06 04:13:07;;;;;;;5.72;3.00;;;;;;;;;;1493139;39;20028;-60
2021/07/06 04:14:10;;;;;;;5.60;3.00;;;;;;;;;;1493216;39;20028;-61
2021/07/06 04:15:12;;;;;;;8.18;3.28;;;;;;;;;;1493250;39;20025;-61
2021/07/06 04:16:14;;;;;;;7.00;2.83;;;;;;;;;;1493294;39;20063;-59
2021/07/06 04:17:15;;;;;;;5.18;2.90;;;;;;;;;;1493088;39;20016;-60
2021/07/06 04:18:16;;;;;;;6.88;3.08;;;;;;;;;;1493277;39;20028;-60
2021/07/06 04:19:17;;;;;;;8.13;3.30;;;;;;;;;;1493100;39;20024;-61
2021/07/06 04:20:19;;;;;;;4.60;2.58;;;;;;;;;;1493144;39;20287;-61
2021/07/06 04:21:20;;;;;;;5.57;2.80;;;;;;;;;;1493082;39;20023;-61
2021/07/06 04:22:22;;;;;;;7.82;2.90;;;;;;;;;;1493105;39;20020;-60
2021/07/06 04:23:22;;;;;;;9.10;2.90;;;;;;;;;;1493107;39;20291;-60
2021/07/06 04:24:24;;;;;;;4.55;2.67;;;;;;;;;;1493273;39;20024;-60
2021/07/06 04:25:25;;;;;;;6.72;3.08;;;;;;;;;;1492962;39;20023;-61
2021/07/06 04:26:27;;;;;;;7.05;2.97;;;;;;;;;;1492958;39;20028;-59
2021/07/06 04:27:28;;;;;;;6.03;2.72;;;;;;;;;;1493256;39;20028;-59
2021/07/06 04:28:31;;;;;;;4.85;2.80;;;;;;;;;;1493371;39;20031;-59
2021/07/06 04:29:32;;;;;;;8.45;2.70;;;;;;;;;;1493079;39;20019;-60
2021/07/06 04:30:34;;;;;;;8.02;2.90;;;;;;;;;;1493211;39;20031;-59
2021/07/06 04:31:35;;;;;;;6.07;2.60;;;;;;;;;;1493304;39;20020;-59
2021/07/06 04:32:37;;;;;;;4.63;2.67;;;;;;;;;;1493114;39;20380;-61
2021/07/06 04:33:37;;;;;;;3.60;2.70;;;;;;;;;;1493223;39;20039;-59
2021/07/06 04:34:39;;;;;;;7.45;2.70;;;;;;;;;;1493039;39;20395;-61
2021/07/06 04:35:40;;;;;;;5.63;2.88;;;;;;;;;;1492999;39;20399;-61
2021/07/06 04:36:42;;;;;;;5.03;2.55;;;;;;;;;;1493102;39;20020;-59
2021/07/06 04:37:43;;;;;;;4.35;2.70;;;;;;;;;;1493203;39;20027;-60
2021/07/06 04:38:44;;;;;;;5.88;2.80;;;;;;;;;;1493054;39;20028;-60
2021/07/06 04:39:45;;;;;;;7.22;3.00;;;;;;;;;;1493083;39;20031;-61
2021/07/06 04:40:48;;;;;;;6.22;2.95;;;;;;;;;;1493243;39;20023;-60
2021/07/06 04:41:49;;;;;;;4.03;2.47;;;;;;;;;;1493037;39;20024;-61
2021/07/06 04:42:55;;;;;;;7.72;3.10;;;;;;;;;;1493058;39;20028;-61
2021/07/06 04:43:57;;;;;;;6.15;2.88;;;;;;;;;;1493247;39;20024;-59
2021/07/06 04:44:59;;;;;;;5.85;3.22;;;;;;;;;;1492974;39;20035;-62
2021/07/06 04:46:00;;;;;;;5.80;3.05;;;;;;;;;;1493206;39;20028;-61
2021/07/06 04:47:01;;;;;;;6.78;3.13;;;;;;;;;;1493110;39;20409;-61
2021/07/06 04:48:03;;;;;;;5.63;3.15;;;;;;;;;;1493259;39;20024;-60
2021/07/06 04:49:05;;;;;;;5.07;3.10;;;;;;;;;;1493253;39;20032;-61
2021/07/06 04:50:09;;;;;;;4.88;3.22;;;;;;;;;;1493026;39;20020;-60
2021/07/06 04:51:11;;;;;;;6.68;3.05;;;;;;;;;;1493098;39;20024;-61
2021/07/06 04:52:12;;;;;;;6.75;3.53;;;;;;;;;;1493135;39;20286;-59
2021/07/06 04:53:15;;;;;;;7.18;3.10;;;;;;;;;;1493068;39;20036;-60
2021/07/06 04:54:20;;;;;;;5.03;3.13;;;;;;;;;;1493091;39;20387;-59
2021/07/06 04:55:22;;;;;;;4.15;3.10;;;;;;;;;;1493165;39;20436;-61
2021/07/06 04:56:25;;;;;;;6.90;3.08;;;;;;;;;;1493135;39;20020;-61
2021/07/06 04:57:26;;;;;;;3.40;2.63;;;;;;;;;;1493197;39;20031;-61
2021/07/06 04:58:28;;;;;;;4.63;2.88;;;;;;;;;;1493046;39;20016;-60
2021/07/06 04:59:31;;;;;;;5.70;3.30;;;;;;;;;;1493156;39;20027;-61
2021/07/06 05:00:32;;;;;;;5.97;2.75;;;;;;;;;;1493189;39;20031;-68
2021/07/06 05:01:34;;;;;;;6.47;2.83;;;;;;;;;;1493119;39;20050;-61
2021/07/06 05:02:35;;;;;;;6.90;3.35;;;;;;;;;;1493017;39;20024;-60
2021/07/06 05:03:38;;;;;;;5.47;3.20;;;;;;;;;;1493178;39;20035;-61
2021/07/06 05:04:39;;;;;;;5.80;2.80;;;;;;;;;;1492996;39;20024;-61
2021/07/06 05:05:40;;;;;;;8.27;3.17;;;;;;;;;;1492936;39;20028;-60
2021/07/06 05:06:42;;;;;;;6.30;3.30;;;;;;;;;;1493054;39;20403;-60
2021/07/06 05:07:43;;;;;;;7.38;3.10;;;;;;;;;;1493218;39;20028;-62
2021/07/06 05:08:44;;;;;;;3.92;2.72;;;;;;;;;;1492951;39;20035;-65
2021/07/06 05:09:46;;;;;;;7.82;3.22;;;;;;;;;;1493060;39;20024;-60
2021/07/06 05:10:47;;;;;;;6.13;2.75;;;;;;;;;;1492957;39;20023;-60
2021/07/06 05:11:49;;;;;;;6.80;2.85;;;;;;;;;;1493062;39;20036;-61
2021/07/06 05:12:50;;;;;;;5.78;3.03;;;;;;;;;;1492933;39;20028;-60
2021/07/06 05:13:51;;;;;;;4.47;2.88;;;;;;;;;;1493030;39;20023;-61
2021/07/06 05:14:54;;;;;;;6.07;3.30;;;;;;;;;;1493011;39;20043;-60
2021/07/06 05:15:55;;;;;;;7.32;3.33;;;;;;;;;;1493160;39;20104;-61
2021/07/06 05:16:56;;;;;;;4.70;2.88;;;;;;;;;;1493081;39;20020;-61
2021/07/06 05:17:58;;;;;;;6.28;2.83;;;;;;;;;;1493181;39;20027;-62
2021/07/06 05:18:59;;;;;;;6.05;2.83;;;;;;;;;;1492951;39;20023;-61
2021/07/06 05:20:01;;;;;;;6.10;3.28;;;;;;;;;;1493066;39;20035;-61
2021/07/06 05:21:02;;;;;;;8.13;3.42;;;;;;;;;;1492962;39;20024;-61
2021/07/06 05:22:04;;;;;;;4.85;3.17;;;;;;;;;;1493168;39;20028;-60
2021/07/06 05:23:05;;;;;;;5.70;3.53;;;;;;;;;;1492918;39;20303;-60
2021/07/06 05:24:07;;;;;;;7.43;3.13;;;;;;;;;;1493061;39;20027;-61
2021/07/06 05:25:09;;;;;;;5.53;3.20;;;;;;;;;;1493033;39;20024;-61
2021/07/06 05:26:12;;;;;;;5.80;3.25;;;;;;;;;;1493031;39;20287;-60
2021/07/06 05:27:13;;;;;;;5.72;2.88;;;;;;;;;;1492952;39;20023;-60
2021/07/06 05:28:15;;;;;;;5.15;2.88;;;;;;;;;;1493003;39;20412;-62
2021/07/06 05:29:16;;;;;;;6.10;2.88;;;;;;;;;;1492954;39;20028;-62
2021/07/06 05:30:20;;;;;;;7.38;2.70;;;;;;;;;;1492907;39;20020;-61
2021/07/06 05:31:21;;;;;;;5.47;3.00;;;;;;;;;;1492953;39;20380;-61
2021/07/06 05:32:22;;;;;;;5.05;2.75;;;;;;;;;;1492865;39;20024;-62
2021/07/06 05:33:23;;;;;;;6.65;2.63;;;;;;;;;;1492944;39;20020;-61
2021/07/06 05:34:25;;;;;;;7.00;2.90;;;;;;;;;;1493028;39;20024;-61
2021/07/06 05:35:26;;;;;;;5.40;2.70;;;;;;;;;;1493030;39;20031;-61
2021/07/06 05:36:28;;;;;;;3.85;2.85;;;;;;;;;;1493026;39;20024;-62
2021/07/06 05:37:29;;;;;;;6.47;3.08;;;;;;;;;;1492798;39;20104;-61
2021/07/06 05:38:30;;;;;;;6.90;2.88;;;;;;;;;;1492953;39;20108;-61
2021/07/06 05:39:31;;;;;;;5.50;2.72;;;;;;;;;;1493025;39;20031;-62
2021/07/06 05:40:38;;;;;;;7.85;3.10;;;;;;;;;;1493016;39;20028;-61
2021/07/06 05:41:39;;;;;;;3.75;2.65;;;;;;;;;;1492908;39;20028;-62
2021/07/06 05:42:42;;;;;;;5.78;2.70;;;;;;;;;;1492932;39;20522;-62
2021/07/06 05:43:43;;;;;;;3.22;2.55;;;;;;;;;;1492951;39;20020;-62
2021/07/06 05:44:45;;;;;;;4.20;2.70;;;;;;;;;;1492951;39;20024;-62
2021/07/06 05:45:50;;;;;;;5.53;2.60;;;;;;;;;;1493085;39;20047;-62
2021/07/06 05:46:52;;;;;;;5.30;3.10;;;;;;;;;;1492991;39;20031;-62
2021/07/06 05:47:53;;;;;;;6.10;2.67;;;;;;;;;;1492871;39;20023;-62
2021/07/06 05:48:54;;;;;;;4.47;2.70;;;;;;;;;;1492903;39;20024;-62
2021/07/06 05:49:55;;;;;;;7.15;2.97;;;;;;;;;;1492975;39;20032;-62
2021/07/06 05:50:57;;;;;;;4.20;2.92;;;;;;;;;;1493011;39;20024;-62
2021/07/06 05:51:58;;;;;;;6.80;2.53;;;;;;;;;;1492834;39;20051;-62
2021/07/06 05:52:59;;;;;;;5.07;2.50;;;;;;;;;;1492786;39;20042;-62
2021/07/06 05:54:00;;;;;;;3.83;2.65;;;;;;;;;;1492868;39;20379;-62
2021/07/06 05:55:03;;;;;;;6.88;2.53;;;;;;;;;;1492841;39;20024;-62
2021/07/06 05:56:04;;;;;;;4.93;2.50;;;;;;;;;;1492793;39;20372;-61
2021/07/06 05:57:06;;;;;;;7.32;2.78;;;;;;;;;;1493061;39;20032;-62
2021/07/06 05:58:07;;;;;;;5.63;2.88;;;;;;;;;;1492838;39;20295;-62
2021/07/06 05:59:09;;;;;;;5.88;2.33;;;;;;;;;;1492958;39;20060;-62
2021/07/06 06:00:13;;;;;;;5.85;2.88;;;;;;;;;;1492852;39;20027;-61
2021/07/06 06:01:16;;;;;;;5.10;2.97;;;;;;;;;;1492918;39;20024;-62
2021/07/06 06:02:17;;;;;;;3.72;2.60;;;;;;;;;;1492913;39;20020;-62
2021/07/06 06:03:19;;;;;;;6.13;2.75;;;;;;;;;;1493027;39;20023;-62
2021/07/06 06:04:20;;;;;;;5.63;2.65;;;;;;;;;;1492957;39;20031;-62
2021/07/06 06:05:22;;;;;;;5.72;2.83;;;;;;;;;;1492958;39;20031;-62
2021/07/06 06:06:23;;;;;;;5.05;2.65;;;;;;;;;;1492942;39;20046;-62
2021/07/06 06:07:24;;;;;;;5.28;2.55;;;;;;;;;;1492867;39;20388;-62
2021/07/06 06:08:25;;;;;;;4.07;2.63;;;;;;;;;;1492881;39;20108;-62
2021/07/06 06:09:27;;;;;;;4.95;2.65;;;;;;;;;;1492947;39;20028;-62
2021/07/06 06:10:28;;;;;;;4.47;2.75;;;;;;;;;;1492798;39;20396;-62